Time;durP1;ratioP1;P1;durP2;ratioP2;P2;SDS_P1;SDS_P2;PMS_P1;PMS_P2;Temp;Humidity;BMP_temperature;BMP_pressure;BME280_temperature;BME280_humidity;BME280_pressure;Samples;Min_cycle;Max_cycle;Signal;HPM_P1;HPM_P2
2022/07/02 00:00:02;;;;;;;;;;;;;;;15.83;79.02;101054.44;1665931;86;20216;-74
2022/07/02 00:02:35;;;;;;;;;;;;;;;15.87;79.05;101062.97;1665400;86;20508;-74
2022/07/02 00:05:05;;;;;;;;;;;;;;;15.87;79.08;101056.24;1665327;84;21909;-74
2022/07/02 00:07:31;;;;;;;;;;;;;;;15.85;79.11;101055.61;1638329;86;20510;-74
2022/07/02 00:09:57;;;;;;;;;;;;;;;15.83;79.13;101049.06;1639539;86;20237;-74
2022/07/02 00:12:24;;;;;;;;;;;;;;;15.85;79.17;101048.88;1658679;85;20199;-74
2022/07/02 00:14:52;;;;;;;;;;;;;;;15.84;79.17;101036.45;1649381;86;20158;-74
2022/07/02 00:17:18;;;;;;;;;;;;;;;15.84;79.20;101048.55;1665968;86;21148;-74
2022/07/02 00:19:43;;;;;;;;;;;;;;;15.81;79.18;101063.73;1666311;86;20172;-74
2022/07/02 00:22:10;;;;;;;;;;;;;;;15.80;79.18;101067.43;1665988;84;20807;-74
2022/07/02 00:24:40;;;;;;;;;;;;;;;15.78;79.20;101068.14;1665951;84;20538;-74
2022/07/02 00:27:05;;;;;;;;;;;;;;;15.77;79.23;101079.91;1666031;86;20134;-74
2022/07/02 00:29:54;;;;;;;;;;;;;;;15.76;79.23;101074.23;1665505;84;21154;-73
2022/07/02 00:32:20;;;;;;;;;;;;;;;15.76;79.25;101070.20;1635398;86;20166;-74
2022/07/02 00:34:46;;;;;;;;;;;;;;;15.73;79.30;101070.04;1664958;85;20279;-74
2022/07/02 00:37:13;;;;;;;;;;;;;;;15.68;79.33;101076.50;1651940;85;20484;-73
2022/07/02 00:39:39;;;;;;;;;;;;;;;15.69;79.35;101076.00;1644549;84;20474;-74
2022/07/02 00:42:05;;;;;;;;;;;;;;;15.66;79.35;101080.38;1664551;85;21165;-74
2022/07/02 00:44:31;;;;;;;;;;;;;;;15.65;79.33;101077.39;1671286;85;20427;-74
2022/07/02 00:47:05;;;;;;;;;;;;;;;15.66;79.37;101086.59;1667782;85;20199;-74
2022/07/02 00:49:32;;;;;;;;;;;;;;;15.66;79.38;101079.03;1672504;83;20516;-73
2022/07/02 00:51:59;;;;;;;;;;;;;;;15.66;79.36;101088.44;1686076;85;20164;-74
2022/07/02 00:54:26;;;;;;;;;;;;;;;15.68;79.36;101093.98;1688518;84;21931;-74
2022/07/02 00:57:13;;;;;;;;;;;;;;;15.67;79.37;101091.47;1689883;84;20506;-74
2022/07/02 00:59:39;;;;;;;;;;;;;;;15.67;79.37;101089.61;1675413;84;20164;-74
2022/07/02 01:02:08;;;;;;;;;;;;;;;15.66;79.37;101085.25;1631510;86;20217;-74
2022/07/02 01:04:34;;;;;;;;;;;;;;;15.65;79.39;101078.73;1658732;85;20165;-73
2022/07/02 01:07:11;;;;;;;;;;;;;;;15.67;79.37;101076.67;1658787;84;21149;-74
2022/07/02 01:12:24;;;;;;;;;;;;;;;15.63;79.40;101082.94;1658440;86;20194;-74
2022/07/02 01:14:53;;;;;;;;;;;;;;;15.65;79.40;101088.14;1659137;85;20134;-74
2022/07/02 01:17:19;;;;;;;;;;;;;;;15.65;79.39;101097.55;1658915;86;20197;-74
2022/07/02 01:19:45;;;;;;;;;;;;;;;15.62;79.41;101089.86;1659098;86;21723;-74
2022/07/02 01:22:20;;;;;;;;;;;;;;;15.58;79.41;101100.66;1656973;85;20244;-74
2022/07/02 01:24:47;;;;;;;;;;;;;;;15.56;79.44;101102.68;1657925;84;20202;-74
2022/07/02 01:27:13;;;;;;;;;;;;;;;15.54;79.47;101106.08;1642676;84;20166;-74
2022/07/02 01:29:39;;;;;;;;;;;;;;;15.51;79.53;101107.80;1659051;84;20245;-74
2022/07/02 01:32:06;;;;;;;;;;;;;;;15.44;79.58;101111.20;1652152;84;21824;-74
2022/07/02 01:34:38;;;;;;;;;;;;;;;15.40;79.67;101116.61;1657642;86;20513;-74
2022/07/02 01:37:06;;;;;;;;;;;;;;;15.35;79.79;101112.28;1658313;86;20166;-74
2022/07/02 01:39:32;;;;;;;;;;;;;;;15.32;79.83;101122.05;1657423;85;20681;-74
2022/07/02 01:41:58;;;;;;;;;;;;;;;15.31;79.94;101121.72;1657412;85;20262;-74
2022/07/02 01:44:24;;;;;;;;;;;;;;;15.28;80.00;101126.62;1657492;86;21170;-74
2022/07/02 01:46:49;;;;;;;;;;;;;;;15.27;80.10;101130.35;1658105;86;20877;-74
2022/07/02 01:49:15;;;;;;;;;;;;;;;15.25;80.19;101133.21;1658762;85;20235;-73
2022/07/02 01:51:41;;;;;;;;;;;;;;;15.24;80.28;101137.41;1658400;85;20164;-74
2022/07/02 01:54:07;;;;;;;;;;;;;;;15.25;80.33;101144.47;1665413;86;20168;-74
2022/07/02 01:56:33;;;;;;;;;;;;;;;15.23;80.42;101143.31;1659319;86;21190;-74
2022/07/02 01:58:59;;;;;;;;;;;;;;;15.22;80.47;101129.55;1669584;85;20160;-74
2022/07/02 02:01:25;;;;;;;;;;;;;;;15.18;80.55;101145.70;1675561;84;20175;-74
2022/07/02 02:03:51;;;;;;;;;;;;;;;15.11;80.65;101138.55;1675729;85;20171;-73
2022/07/02 02:06:17;;;;;;;;;;;;;;;15.08;80.73;101147.81;1668462;85;20168;-74
2022/07/02 02:08:43;;;;;;;;;;;;;;;15.07;80.77;101154.69;1675860;85;21909;-74
2022/07/02 02:11:08;;;;;;;;;;;;;;;15.02;80.84;101149.88;1676208;85;20302;-74
2022/07/02 02:13:34;;;;;;;;;;;;;;;14.99;80.82;101148.87;1650860;85;20210;-74
2022/07/02 02:16:00;;;;;;;;;;;;;;;14.99;80.90;101167.67;1676199;85;20140;-74
2022/07/02 02:18:26;;;;;;;;;;;;;;;14.99;80.91;101162.30;1675997;84;20251;-74
2022/07/02 02:20:52;;;;;;;;;;;;;;;14.98;80.95;101166.87;1676248;85;21129;-74
2022/07/02 02:23:18;;;;;;;;;;;;;;;14.98;80.94;101176.77;1651697;85;20182;-74
2022/07/02 02:25:43;;;;;;;;;;;;;;;14.95;80.97;101185.20;1663171;85;20206;-73
2022/07/02 02:28:09;;;;;;;;;;;;;;;14.94;80.96;101191.57;1664351;85;20516;-74
2022/07/02 02:30:35;;;;;;;;;;;;;;;14.94;80.96;101196.94;1653448;85;20236;-73
2022/07/02 02:33:01;;;;;;;;;;;;;;;14.93;80.94;101193.92;1657168;85;21220;-73
2022/07/02 02:35:27;;;;;;;;;;;;;;;14.91;80.95;101205.36;1671232;85;20165;-73
2022/07/02 02:37:53;;;;;;;;;;;;;;;14.90;80.93;101207.71;1661011;85;20290;-74
2022/07/02 02:40:19;;;;;;;;;;;;;;;14.87;80.95;101204.88;1648625;85;20245;-74
2022/07/02 02:42:44;;;;;;;;;;;;;;;14.87;80.95;101205.38;1654063;85;20188;-74
2022/07/02 02:45:10;;;;;;;;;;;;;;;14.85;80.87;101212.77;1676140;85;21121;-73
2022/07/02 02:47:36;;;;;;;;;;;;;;;14.84;80.90;101217.83;1675954;85;20206;-73
2022/07/02 02:50:03;;;;;;;;;;;;;;;14.86;80.82;101227.88;1676021;85;20227;-74
2022/07/02 02:52:29;;;;;;;;;;;;;;;14.84;80.79;101221.36;1662953;85;20192;-74
2022/07/02 02:54:55;;;;;;;;;;;;;;;14.84;80.79;101227.23;1642378;85;20192;-73
2022/07/02 02:57:21;;;;;;;;;;;;;;;14.84;80.74;101224.55;1661450;85;21147;-73
2022/07/02 02:59:46;;;;;;;;;;;;;;;14.83;80.72;101221.52;1664514;85;20196;-74
2022/07/02 03:02:12;;;;;;;;;;;;;;;14.81;80.68;101226.25;1655055;85;20221;-74
2022/07/02 03:04:38;;;;;;;;;;;;;;;14.82;80.60;101229.23;1656699;85;20572;-73
2022/07/02 03:07:04;;;;;;;;;;;;;;;14.82;80.62;101235.95;1668136;84;20173;-74
2022/07/02 03:09:30;;;;;;;;;;;;;;;14.81;80.59;101231.62;1654940;86;21167;-74
2022/07/02 03:11:56;;;;;;;;;;;;;;;14.82;80.54;101235.95;1661296;85;20189;-73
2022/07/02 03:14:22;;;;;;;;;;;;;;;14.82;80.50;101235.95;1664016;84;20264;-73
2022/07/02 03:16:48;;;;;;;;;;;;;;;14.81;80.47;101234.30;1654967;86;20295;-74
2022/07/02 03:19:14;;;;;;;;;;;;;;;14.80;80.42;101238.83;1654498;86;20249;-74
2022/07/02 03:21:40;;;;;;;;;;;;;;;14.82;80.40;101248.03;1651579;86;21107;-73
2022/07/02 03:24:06;;;;;;;;;;;;;;;14.85;80.32;101253.05;1638674;86;20788;-73
2022/07/02 03:26:31;;;;;;;;;;;;;;;14.85;80.26;101254.39;1654980;86;20175;-73
2022/07/02 03:28:58;;;;;;;;;;;;;;;14.84;80.18;101263.48;1670411;85;20237;-73
2022/07/02 03:31:24;;;;;;;;;;;;;;;14.84;80.12;101264.83;1667913;85;20170;-74
2022/07/02 03:33:50;;;;;;;;;;;;;;;14.86;80.08;101264.97;1661402;84;21202;-74
2022/07/02 03:36:16;;;;;;;;;;;;;;;14.87;80.01;101263.13;1665507;85;20264;-73
2022/07/02 03:38:41;;;;;;;;;;;;;;;14.87;79.95;101263.97;1646916;86;20192;-74
2022/07/02 03:41:08;;;;;;;;;;;;;;;14.89;79.89;101269.14;1655099;85;20241;-74
2022/07/02 03:43:35;;;;;;;;;;;;;;;14.89;79.82;101270.48;1661898;85;20211;-73
2022/07/02 03:46:02;;;;;;;;;;;;;;;14.90;79.76;101274.36;1662296;86;21772;-73
2022/07/02 03:48:27;;;;;;;;;;;;;;;14.90;79.70;101281.57;1660572;86;20486;-73
2022/07/02 03:50:53;;;;;;;;;;;;;;;14.89;79.64;101285.26;1657733;85;20310;-73
2022/07/02 03:53:19;;;;;;;;;;;;;;;14.92;79.60;101282.22;1658173;86;20546;-73
2022/07/02 03:55:45;;;;;;;;;;;;;;;14.96;79.48;101283.55;1658851;85;20252;-73
2022/07/02 03:58:10;;;;;;;;;;;;;;;15.02;79.41;101286.89;1655050;85;21192;-74
2022/07/02 04:00:36;;;;;;;;;;;;;;;15.09;79.35;101283.83;1658383;85;20184;-73
2022/07/02 04:03:02;;;;;;;;;;;;;;;15.15;79.25;101288.48;1659519;86;20200;-73
2022/07/02 04:05:28;;;;;;;;;;;;;;;15.17;79.12;101290.47;1664145;86;20168;-73
2022/07/02 04:07:54;;;;;;;;;;;;;;;15.18;79.03;101293.49;1658761;86;20212;-73
2022/07/02 04:10:20;;;;;;;;;;;;;;;15.20;78.95;101295.48;1658188;85;22078;-74
2022/07/02 04:12:46;;;;;;;;;;;;;;;15.25;78.88;101293.11;1698939;84;20239;-73
2022/07/02 04:15:11;;;;;;;;;;;;;;;15.26;78.76;101293.45;1696600;83;20192;-73
2022/07/02 04:17:37;;;;;;;;;;;;;;;15.33;78.66;101294.91;1699567;84;20172;-73
2022/07/02 04:20:04;;;;;;;;;;;;;;;15.35;78.57;101296.39;1697970;84;20177;-73
2022/07/02 04:22:30;;;;;;;;;;;;;;;15.37;78.45;101302.95;1699738;84;21819;-74
2022/07/02 04:24:56;;;;;;;;;;;;;;;15.39;78.36;101301.75;1703428;84;20303;-74
2022/07/02 04:27:21;;;;;;;;;;;;;;;15.43;78.30;101305.75;1704742;84;20172;-73
2022/07/02 04:29:47;;;;;;;;;;;;;;;15.47;78.19;101309.76;1701629;84;20434;-73
2022/07/02 04:32:13;;;;;;;;;;;;;;;15.54;78.08;101309.06;1699172;84;20185;-73
2022/07/02 04:34:39;;;;;;;;;;;;;;;15.82;77.96;101311.52;1698594;84;22656;-73
2022/07/02 04:37:05;;;;;;;;;;;;;;;15.95;77.74;101311.73;1697922;84;20224;-73
2022/07/02 04:39:31;;;;;;;;;;;;;;;15.86;77.64;101317.71;1702601;84;20192;-73
2022/07/02 04:41:57;;;;;;;;;;;;;;;15.93;77.58;101313.78;1703334;84;20172;-73
2022/07/02 04:44:24;;;;;;;;;;;;;;;15.99;77.45;101321.11;1699445;84;20162;-74
2022/07/02 04:46:50;;;;;;;;;;;;;;;16.42;77.35;101318.99;1693235;84;21157;-74
2022/07/02 04:49:16;;;;;;;;;;;;;;;16.70;77.22;101322.40;1699358;84;20224;-73
2022/07/02 04:51:42;;;;;;;;;;;;;;;16.47;77.03;101327.33;1699669;84;20203;-73
2022/07/02 04:54:08;;;;;;;;;;;;;;;16.19;76.89;101330.33;1699524;84;20177;-74
2022/07/02 04:56:34;;;;;;;;;;;;;;;15.97;76.75;101325.85;1699452;84;20792;-74
2022/07/02 04:59:00;;;;;;;;;;;;;;;15.85;76.59;101327.30;1700011;83;21170;-74
2022/07/02 05:01:28;;;;;;;;;;;;;;;15.88;76.50;101333.65;1699506;84;20192;-74
2022/07/02 05:03:53;;;;;;;;;;;;;;;16.16;76.42;101345.50;1699533;84;20496;-74
2022/07/02 05:06:21;;;;;;;;;;;;;;;16.27;76.29;101342.37;1699315;83;20181;-74
2022/07/02 05:08:52;;;;;;;;;;;;;;;16.96;76.18;101342.92;1702764;84;20501;-74
2022/07/02 05:11:19;;;;;;;;;;;;;;;17.74;75.99;101344.34;1703158;84;21799;-74
2022/07/02 05:13:46;;;;;;;;;;;;;;;18.34;75.67;101341.61;1701420;84;20161;-74
2022/07/02 05:16:12;;;;;;;;;;;;;;;18.81;75.47;101346.29;1701498;83;20166;-74
2022/07/02 05:18:38;;;;;;;;;;;;;;;19.36;75.16;101353.36;1697925;84;20228;-74
2022/07/02 05:21:05;;;;;;;;;;;;;;;19.72;74.64;101344.93;1674908;84;20191;-74
2022/07/02 05:23:30;;;;;;;;;;;;;;;19.83;74.04;101342.45;1694203;84;21111;-74
2022/07/02 05:25:56;;;;;;;;;;;;;;;19.96;73.56;101345.67;1699520;84;20259;-74
2022/07/02 05:28:23;;;;;;;;;;;;;;;20.00;72.75;101348.28;1699501;84;20219;-74
2022/07/02 05:30:49;;;;;;;;;;;;;;;20.18;72.33;101345.78;1699500;84;20637;-74
2022/07/02 05:33:15;;;;;;;;;;;;;;;20.52;71.82;101350.12;1702960;84;20462;-74
2022/07/02 05:35:41;;;;;;;;;;;;;;;20.70;71.22;101354.36;1687993;83;21435;-74
2022/07/02 05:38:07;;;;;;;;;;;;;;;20.75;70.53;101355.09;1702090;83;20192;-74
2022/07/02 05:40:33;;;;;;;;;;;;;;;20.72;69.93;101356.88;1693720;84;20773;-74
2022/07/02 05:42:59;;;;;;;;;;;;;;;20.62;69.28;101355.13;1683865;84;20145;-74
2022/07/02 05:45:24;;;;;;;;;;;;;;;20.70;68.81;101360.30;1694684;84;20812;-74
2022/07/02 05:47:50;;;;;;;;;;;;;;;20.76;68.39;101363.52;1696211;84;22252;-74
2022/07/02 05:50:16;;;;;;;;;;;;;;;20.85;67.87;101364.96;1663940;84;20251;-74
2022/07/02 05:52:42;;;;;;;;;;;;;;;21.00;67.53;101365.55;1658696;86;20204;-74
2022/07/02 05:55:08;;;;;;;;;;;;;;;20.99;67.04;101365.75;1658612;86;20695;-74
2022/07/02 05:57:34;;;;;;;;;;;;;;;21.01;66.64;101371.77;1699555;84;20438;-74
2022/07/02 06:00:00;;;;;;;;;;;;;;;21.09;66.13;101365.59;1699570;82;21535;-74
2022/07/02 06:02:26;;;;;;;;;;;;;;;21.11;65.71;101371.66;1689224;82;20198;-74
2022/07/02 06:04:52;;;;;;;;;;;;;;;21.19;65.44;101378.20;1689387;82;20591;-74
2022/07/02 06:10:02;;;;;;;;;;;;;;;21.49;64.87;101380.37;1692911;83;20173;-75
2022/07/02 06:12:28;;;;;;;;;;;;;;;21.82;64.66;101379.62;1687630;83;21757;-75
2022/07/02 06:14:54;;;;;;;;;;;;;;;21.83;63.99;101384.84;1686677;83;20207;-75
2022/07/02 06:17:20;;;;;;;;;;;;;;;21.78;63.72;101387.38;1691874;84;20296;-75
2022/07/02 06:19:48;;;;;;;;;;;;;;;21.80;63.42;101389.88;1680988;83;21057;-75
2022/07/02 06:22:14;;;;;;;;;;;;;;;21.82;63.08;101394.55;1695697;84;20155;-75
2022/07/02 06:24:40;;;;;;;;;;;;;;;21.88;62.85;101390.98;1698800;84;21614;-74
2022/07/02 06:27:06;;;;;;;;;;;;;;;21.92;62.55;101390.85;1686048;84;20594;-74
2022/07/02 06:29:31;;;;;;;;;;;;;;;21.96;62.23;101382.58;1695762;84;20270;-75
2022/07/02 06:31:57;;;;;;;;;;;;;;;21.95;62.00;101393.16;1687220;83;20256;-75
2022/07/02 06:34:23;;;;;;;;;;;;;;;21.86;61.64;101397.14;1688067;83;20267;-75
2022/07/02 06:36:49;;;;;;;;;;;;;;;21.73;61.54;101388.57;1682566;83;22271;-75
2022/07/02 06:39:15;;;;;;;;;;;;;;;21.68;61.24;101387.55;1696532;83;20215;-75
2022/07/02 06:44:25;;;;;;;;;;;;;;;21.49;60.74;101398.01;1680385;84;20165;-74
2022/07/02 06:46:50;;;;;;;;;;;;;;;21.58;60.49;101393.45;1677215;84;20167;-74
2022/07/02 06:49:18;;;;;;;;;;;;;;;21.64;60.21;101393.13;1679418;84;21606;-75
2022/07/02 06:51:44;;;;;;;;;;;;;;;21.92;60.06;101397.64;1679661;83;20484;-74
2022/07/02 06:54:10;;;;;;;;;;;;;;;21.99;59.74;101399.78;1685242;83;20207;-74
2022/07/02 06:56:36;;;;;;;;;;;;;;;22.18;59.62;101400.17;1695332;83;20315;-74
2022/07/02 06:59:05;;;;;;;;;;;;;;;22.29;59.45;101403.53;1690245;83;20246;-75
2022/07/02 07:01:31;;;;;;;;;;;;;;;22.32;59.22;101410.41;1689211;83;22207;-74
2022/07/02 07:03:57;;;;;;;;;;;;;;;22.59;59.16;101409.66;1698413;83;20638;-74
2022/07/02 07:06:26;;;;;;;;;;;;;;;22.79;58.91;101407.59;1702840;83;20262;-74
2022/07/02 07:08:52;;;;;;;;;;;;;;;22.89;58.74;101407.89;1709604;83;20527;-75
2022/07/02 07:11:20;;;;;;;;;;;;;;;22.55;58.14;101415.23;1699669;83;20159;-74
2022/07/02 07:13:46;;;;;;;;;;;;;;;22.19;58.01;101414.08;1707640;84;21844;-74
2022/07/02 07:16:12;;;;;;;;;;;;;;;22.21;57.96;101417.39;1710664;83;20197;-74
2022/07/02 07:18:38;;;;;;;;;;;;;;;22.31;57.81;101420.44;1716980;83;20209;-74
2022/07/02 07:21:04;;;;;;;;;;;;;;;22.36;57.42;101421.14;1713505;83;21076;-74
2022/07/02 07:23:31;;;;;;;;;;;;;;;22.40;57.15;101421.84;1712344;83;20271;-74
2022/07/02 07:25:57;;;;;;;;;;;;;;;22.44;56.75;101427.66;1723132;83;21882;-74
2022/07/02 07:28:26;;;;;;;;;;;;;;;22.63;56.74;101427.99;1722929;83;20180;-74
2022/07/02 07:30:50;;;;;;;;;;;;;;;22.80;56.78;101425.02;1719552;82;20435;-74
2022/07/02 07:33:16;;;;;;;;;;;;;;;22.62;56.42;101435.03;1709095;83;20401;-74
2022/07/02 07:35:42;;;;;;;;;;;;;;;22.00;56.35;101438.14;1717635;83;20246;-74
2022/07/02 07:38:08;;;;;;;;;;;;;;;21.66;56.51;101437.17;1711837;83;22388;-74
2022/07/02 07:40:33;;;;;;;;;;;;;;;21.99;56.63;101441.09;1715763;83;20179;-74
2022/07/02 07:42:59;;;;;;;;;;;;;;;22.38;56.56;101437.53;1708160;83;20227;-74
2022/07/02 07:45:25;;;;;;;;;;;;;;;22.59;56.45;101449.08;1707004;83;20387;-74
2022/07/02 07:47:51;;;;;;;;;;;;;;;22.45;56.15;101442.09;1718086;82;20780;-74
2022/07/02 07:50:17;;;;;;;;;;;;;;;22.40;56.04;101450.39;1718138;82;21175;-74
2022/07/02 07:52:42;;;;;;;;;;;;;;;22.32;55.98;101447.94;1710336;83;20207;-74
2022/07/02 07:55:09;;;;;;;;;;;;;;;22.22;55.78;101454.92;1702385;83;20191;-74
2022/07/02 07:57:34;;;;;;;;;;;;;;;21.95;55.62;101452.92;1712433;83;21368;-74
2022/07/02 08:00:01;;;;;;;;;;;;;;;22.19;55.68;101454.84;1709327;82;20188;-74
2022/07/02 08:02:28;;;;;;;;;;;;;;;22.56;55.58;101449.50;1694982;83;21813;-74
2022/07/02 08:04:53;;;;;;;;;;;;;;;22.85;55.38;101451.56;1689810;83;20180;-74
2022/07/02 08:07:19;;;;;;;;;;;;;;;22.59;55.09;101457.23;1700400;82;20671;-74
2022/07/02 08:09:52;;;;;;;;;;;;;;;22.09;55.12;101459.94;1696194;83;20323;-74
2022/07/02 08:12:13;;;;;;;;;;;;;;;22.10;55.29;101460.73;1703353;83;20159;-74
2022/07/02 08:14:39;;;;;;;;;;;;;;;22.63;55.31;101453.83;1703975;82;21796;-74
2022/07/02 08:17:04;;;;;;;;;;;;;;;23.21;55.12;101454.84;1682615;82;20811;-74
2022/07/02 08:19:30;;;;;;;;;;;;;;;23.73;55.06;101453.36;1683425;83;20598;-74
2022/07/02 08:21:56;;;;;;;;;;;;;;;23.91;54.53;101461.48;1690292;83;20414;-74
2022/07/02 08:24:22;;;;;;;;;;;;;;;23.16;53.96;101462.31;1697991;83;20744;-74
2022/07/02 08:26:48;;;;;;;;;;;;;;;22.35;54.02;101461.08;1706298;82;21636;-74
2022/07/02 08:29:13;;;;;;;;;;;;;;;22.34;54.30;101467.56;1710007;83;20266;-74
2022/07/02 08:31:39;;;;;;;;;;;;;;;22.90;54.42;101465.34;1690594;83;20332;-75
2022/07/02 08:34:05;;;;;;;;;;;;;;;23.36;54.23;101468.35;1698591;83;20567;-75
2022/07/02 08:36:31;;;;;;;;;;;;;;;23.79;54.12;101468.25;1706540;83;20176;-73
2022/07/02 08:38:57;;;;;;;;;;;;;;;23.85;53.62;101469.23;1709182;83;21704;-74
2022/07/02 08:41:23;;;;;;;;;;;;;;;23.44;53.49;101473.22;1695786;83;20719;-74
2022/07/02 08:43:48;;;;;;;;;;;;;;;23.08;53.55;101478.94;1707743;83;20200;-74
2022/07/02 08:46:14;;;;;;;;;;;;;;;23.31;53.62;101476.39;1696886;82;20700;-74
2022/07/02 08:48:40;;;;;;;;;;;;;;;23.53;53.35;101467.78;1703104;82;20267;-74
2022/07/02 08:51:06;;;;;;;;;;;;;;;23.87;53.19;101470.66;1701945;83;22609;-75
2022/07/02 08:53:32;;;;;;;;;;;;;;;24.10;52.96;101467.16;1704002;83;20430;-75
2022/07/02 08:55:58;;;;;;;;;;;;;;;24.10;52.45;101469.89;1710927;83;20199;-75
2022/07/02 08:58:23;;;;;;;;;;;;;;;23.41;52.05;101481.33;1707667;83;20643;-75
2022/07/02 09:00:49;;;;;;;;;;;;;;;22.84;52.16;101480.66;1703734;83;20191;-74
2022/07/02 09:03:18;;;;;;;;;;;;;;;22.45;52.35;101485.59;1707283;82;21786;-75
2022/07/02 09:05:44;;;;;;;;;;;;;;;22.86;52.57;101477.72;1708041;83;20174;-75
2022/07/02 09:08:10;;;;;;;;;;;;;;;23.29;52.52;101479.84;1700933;82;20214;-74
2022/07/02 09:10:36;;;;;;;;;;;;;;;23.63;52.24;101481.69;1702201;83;20432;-75
2022/07/02 09:13:02;;;;;;;;;;;;;;;23.94;51.97;101481.46;1676788;83;20188;-75
2022/07/02 09:15:27;;;;;;;;;;;;;;;23.91;51.64;101487.37;1704446;82;21919;-75
2022/07/02 09:17:53;;;;;;;;;;;;;;;23.36;51.29;101494.22;1717973;82;20756;-75
2022/07/02 09:20:19;;;;;;;;;;;;;;;22.90;51.43;101492.55;1692404;83;20273;-74
2022/07/02 09:22:47;;;;;;;;;;;;;;;22.53;51.51;101490.73;1698937;83;20424;-75
2022/07/02 09:25:24;;;;;;;;;;;;;;;22.64;51.84;101479.14;1703037;83;20557;-74
2022/07/02 09:27:58;;;;;;;;;;;;;;;23.03;51.87;101486.96;1699729;83;21857;-74
2022/07/02 09:30:24;;;;;;;;;;;;;;;23.52;51.61;101486.53;1706457;83;20136;-75
2022/07/02 09:33:28;;;;;;;;;;;;;;;23.83;51.31;101484.44;1703884;83;21590;-74
2022/07/02 09:35:20;;;;;;;;;;;;;;;23.52;50.86;101484.64;1682336;83;20469;-74
2022/07/02 09:37:46;;;;;;;;;;;;;;;23.00;50.91;101492.02;1702355;82;20936;-74
2022/07/02 09:40:12;;;;;;;;;;;;;;;22.61;51.00;101483.14;1705981;83;21661;-75
2022/07/02 09:42:38;;;;;;;;;;;;;;;22.24;51.04;101494.41;1709991;83;20775;-74
2022/07/02 09:45:05;;;;;;;;;;;;;;;21.99;51.14;101492.16;1701846;83;20225;-74
2022/07/02 09:47:39;;;;;;;;;;;;;;;21.89;51.10;101489.05;1710593;82;20901;-74
2022/07/02 09:50:10;;;;;;;;;;;;;;;22.06;51.26;101487.52;1703959;83;20420;-74
2022/07/02 09:52:37;;;;;;;;;;;;;;;22.55;51.26;101483.20;1702798;83;21666;-74
2022/07/02 09:55:03;;;;;;;;;;;;;;;22.96;51.24;101476.67;1682354;83;20124;-74
2022/07/02 09:57:29;;;;;;;;;;;;;;;23.25;51.10;101473.22;1701621;82;20435;-69
2022/07/02 10:00:06;;;;;;;;;;;;;;;23.03;50.84;101484.23;1704063;82;20656;-70
2022/07/02 10:02:32;;;;;;;;;;;;;;;22.65;50.72;101476.21;1699240;83;20681;-71
2022/07/02 10:04:57;;;;;;;;;;;;;;;22.28;50.78;101477.97;1711861;83;21580;-70
2022/07/02 10:07:24;;;;;;;;;;;;;;;22.53;51.01;101474.42;1709030;83;20297;-70
2022/07/02 10:09:51;;;;;;;;;;;;;;;22.94;50.91;101474.69;1682017;83;20200;-70
2022/07/02 10:12:17;;;;;;;;;;;;;;;23.37;50.81;101467.30;1708997;83;21161;-70
2022/07/02 10:14:44;;;;;;;;;;;;;;;23.40;50.37;101470.09;1705982;83;20423;-70
2022/07/02 10:17:10;;;;;;;;;;;;;;;23.26;50.29;101469.94;1698480;82;21779;-70
2022/07/02 10:19:37;;;;;;;;;;;;;;;23.44;50.28;101463.69;1701091;83;20819;-70
2022/07/02 10:22:03;;;;;;;;;;;;;;;23.74;50.16;101467.29;1676715;84;20148;-70
2022/07/02 10:24:29;;;;;;;;;;;;;;;23.86;49.72;101466.79;1648390;86;21152;-70
2022/07/02 10:26:55;;;;;;;;;;;;;;;24.01;49.43;101471.30;1675805;85;20178;-70
2022/07/02 10:29:20;;;;;;;;;;;;;;;23.84;48.91;101475.74;1665261;86;21793;-70
2022/07/02 10:31:49;;;;;;;;;;;;;;;23.75;48.81;101473.05;1665499;86;20927;-70
2022/07/02 10:34:34;;;;;;;;;;;;;;;23.82;48.75;101475.95;1664554;84;20169;-70
2022/07/02 10:37:00;;;;;;;;;;;;;;;24.03;48.71;101473.25;1650025;84;20353;-70
2022/07/02 10:39:25;;;;;;;;;;;;;;;24.28;48.58;101471.74;1663172;84;20192;-70
2022/07/02 10:41:51;;;;;;;;;;;;;;;24.36;48.32;101464.06;1662187;85;21842;-70
2022/07/02 10:44:17;;;;;;;;;;;;;;;24.35;48.07;101457.47;1658903;85;20251;-70
2022/07/02 10:46:46;;;;;;;;;;;;;;;24.39;47.99;101455.94;1664284;86;20271;-70
2022/07/02 10:49:11;;;;;;;;;;;;;;;24.52;48.00;101461.73;1665165;85;20557;-70
2022/07/02 10:51:38;;;;;;;;;;;;;;;24.50;47.61;101454.30;1650938;84;20257;-70
2022/07/02 10:54:05;;;;;;;;;;;;;;;24.41;47.24;101448.90;1663736;86;21801;-70
2022/07/02 10:56:43;;;;;;;;;;;;;;;24.54;47.26;101447.30;1665682;86;20101;-71
2022/07/02 10:59:24;;;;;;;;;;;;;;;24.67;47.10;101441.61;1705217;83;20160;-70
2022/07/02 11:02:07;;;;;;;;;;;;;;;24.57;46.79;101435.39;1693468;83;21246;-70
2022/07/02 11:04:33;;;;;;;;;;;;;;;24.44;46.72;101440.24;1698429;83;20188;-70
2022/07/02 11:07:05;;;;;;;;;;;;;;;24.64;46.63;101436.63;1714073;83;22663;-70
2022/07/02 11:09:31;;;;;;;;;;;;;;;24.72;46.30;101435.75;1706090;82;20346;-70
2022/07/02 11:11:59;;;;;;;;;;;;;;;25.01;46.10;101425.80;1679491;83;20318;-70
2022/07/02 11:14:26;;;;;;;;;;;;;;;25.12;45.81;101429.57;1706094;83;20508;-70
2022/07/02 11:16:53;;;;;;;;;;;;;;;25.24;45.72;101432.56;1683571;83;20272;-70
2022/07/02 11:19:25;;;;;;;;;;;;;;;25.29;45.46;101427.22;1702874;83;21790;-70
2022/07/02 11:21:57;;;;;;;;;;;;;;;25.39;45.43;101428.48;1712082;83;21012;-72
2022/07/02 11:24:23;;;;;;;;;;;;;;;25.60;45.38;101426.48;1702506;82;20168;-70
2022/07/02 11:26:49;;;;;;;;;;;;;;;25.58;44.96;101423.17;1708509;83;20440;-70
2022/07/02 11:29:15;;;;;;;;;;;;;;;24.82;44.35;101422.34;1714592;83;20200;-70
2022/07/02 11:31:46;;;;;;;;;;;;;;;24.23;44.17;101427.48;1696747;83;21880;-70
2022/07/02 11:34:22;;;;;;;;;;;;;;;23.85;44.20;101426.44;1710693;83;20173;-70
2022/07/02 11:36:48;;;;;;;;;;;;;;;23.98;44.41;101422.71;1710220;83;20208;-70
2022/07/02 11:39:15;;;;;;;;;;;;;;;24.33;44.37;101420.91;1711007;83;20773;-70
2022/07/02 11:41:42;;;;;;;;;;;;;;;24.63;44.14;101418.06;1704368;83;20172;-70
2022/07/02 11:44:25;;;;;;;;;;;;;;;24.78;44.11;101420.31;1703524;83;21760;-70
2022/07/02 11:46:52;;;;;;;;;;;;;;;25.09;44.04;101424.56;1693711;83;20201;-70
2022/07/02 11:49:20;;;;;;;;;;;;;;;25.17;43.65;101421.47;1694060;83;20123;-70
2022/07/02 11:51:47;;;;;;;;;;;;;;;24.89;43.44;101420.88;1705894;83;20448;-71
2022/07/02 11:54:13;;;;;;;;;;;;;;;24.70;43.48;101417.97;1713562;83;20192;-70
2022/07/02 11:56:39;;;;;;;;;;;;;;;24.74;43.45;101422.69;1706828;83;21779;-70
2022/07/02 11:59:08;;;;;;;;;;;;;;;24.99;43.36;101413.43;1702303;83;20176;-70
2022/07/02 12:01:34;;;;;;;;;;;;;;;25.13;43.19;101415.66;1710874;83;20546;-70
2022/07/02 12:04:02;;;;;;;;;;;;;;;25.18;42.99;101413.05;1704650;82;20812;-70
2022/07/02 12:06:38;;;;;;;;;;;;;;;25.01;42.86;101408.05;1701866;82;20128;-70
2022/07/02 12:09:09;;;;;;;;;;;;;;;24.56;42.64;101416.55;1698879;82;21819;-70
2022/07/02 12:11:37;;;;;;;;;;;;;;;24.23;42.95;101419.30;1707498;83;20168;-70
2022/07/02 12:14:03;;;;;;;;;;;;;;;24.08;43.09;101420.23;1705229;83;20168;-71
2022/07/02 12:16:29;;;;;;;;;;;;;;;24.08;43.06;101419.41;1715982;82;21140;-70
2022/07/02 12:19:03;;;;;;;;;;;;;;;24.08;43.03;101420.77;1693857;83;20262;-70
2022/07/02 12:21:34;;;;;;;;;;;;;;;24.09;42.99;101420.55;1713908;83;21759;-70
2022/07/02 12:24:00;;;;;;;;;;;;;;;24.31;43.12;101420.30;1682920;83;20455;-71
2022/07/02 12:26:26;;;;;;;;;;;;;;;24.49;43.05;101415.27;1695408;83;20271;-70
2022/07/02 12:31:42;;;;;;;;;;;;;;;24.64;42.81;101407.98;1707446;83;20191;-70
2022/07/02 12:34:08;;;;;;;;;;;;;;;24.88;42.69;101406.09;1695246;82;21809;-70
2022/07/02 12:36:49;;;;;;;;;;;;;;;24.94;42.61;101403.25;1703526;82;20830;-70
2022/07/02 12:39:15;;;;;;;;;;;;;;;25.05;42.51;101405.11;1689658;83;20494;-71
2022/07/02 12:41:41;;;;;;;;;;;;;;;25.04;42.34;101391.72;1705084;83;20363;-71
2022/07/02 12:44:11;;;;;;;;;;;;;;;25.20;42.27;101399.97;1707062;83;20191;-71